Onweer radar Meer informatie blitzortung!


Regen radar Meer informatie rain snow radar


Bezoek onze andere website:

Template documentation
and downloads

And another site



METAR rapporten vliegvelden

   
EHVK - Volkel Rnlafb, Netherlands
Afstand tot: ZW 18 km
Gewijzigd: 15-07-2020 06:55
Bewolking  
Bewolking  
   Wind: Westen 7.4 km/h
Wind: Westen 7.4 km/h
Temperatuur: 12°C
Dauwpunt: 11°C
Vochtigheid: 94%
Barometer: 1014 hPa
Bewolking: Bewolking
Zicht: meer dan 10 km
Bewolking: Bewolking 14000 ft
EHVK 150455Z AUTO 28004KT 9999 OVC140 12/11 Q1014 BLU
EDLV - Niederrhein, Germany
Afstand tot: ZO 25 km
Gewijzigd: 15-07-2020 06:50
Gedeeltelijk bewolkt  
Gedeeltelijk bewolkt  
   Wind: Westen 5.6 km/h
Wind: Westen 5.6 km/h
Temperatuur: 11°C
Dauwpunt: 10°C
Vochtigheid: 94%
Barometer: 1014 hPa
Bewolking: Gedeeltelijk bewolkt
Zicht: 9 km
Bewolking: Gedeeltelijk bewolkt
EDLV 150450Z 28003KT 9000 NSC 11/10 Q1014
EHDL - Deelen Rnlafb, Netherlands
Afstand tot: N 35 km
Gewijzigd: 15-07-2020 06:55
Helder  
Helder  
   Wind: Kalm
Wind: Kalm
Temperatuur: 9°C
Dauwpunt: 9°C
Vochtigheid: 100%
Barometer: 1014 hPa
Bewolking: Helder
Zicht: meer dan 10 km
Bewolking: Helder
EHDL 150455Z AUTO 00000KT 9999 NCD 09/09 Q1014 BLU
EHEH - Eindhoven Rnlafb, Netherlands
Afstand tot: ZW 48 km
Gewijzigd: 15-07-2020 06:55
Helder  
Helder  
   Wind: Westen 5.6 km/h
Wind: Westen 5.6 km/h
Temperatuur: 10°C
Voelt als: 9°C
Dauwpunt: 10°C
Vochtigheid: 100%
Barometer: 1014 hPa
Bewolking: Helder
Zicht: meer dan 10 km
Bewolking: Helder
EHEH 150455Z AUTO 26003KT 220V330 9999 NCD 10/10 Q1014 BLU NOSIG
EHGR - Gilze-Rijen Rnla, Netherlands
Afstand tot: WZW 70 km
Gewijzigd: 15-07-2020 06:57
Nevel, Helder  
Nevel, Helder  
   Wind: ZZW 1.9 km/h
Wind: ZZW 1.9 km/h
Temperatuur: 10°C
Dauwpunt: 10°C
Vochtigheid: 100%
Barometer: 1014 hPa
Bewolking: Helder
Zicht: 8 km
Bewolking: Helder
EHGR 150457Z AUTO 20001KT 8000 BR NCD 10/10 Q1014 BLU
EBBL - Kleine-Brogel(Ba, Belgium
Afstand tot: ZZW 71 km
Gewijzigd: 15-07-2020 07:03
Gedeeltelijk bewolkt  
Gedeeltelijk bewolkt  
   Wind: varieert 1.9 km/h
Wind: varieert 1.9 km/h
Temperatuur: 11°C
Dauwpunt: 11°C
Vochtigheid: 100%
Barometer: 1014 hPa
Bewolking: Gedeeltelijk bewolkt
Zicht: meer dan 10 km
Bewolking: Gedeeltelijk bewolkt 14000 ft
EBBL 150503Z VRB01KT 9999 SCT140 11/11 Q1014 BLU BLU

Script ontwikkeld door  Saratoga-weather.org Aangepast voor de template door  Weerstation Leuven